sensor_id;sensor_type;location;lat;lon;timestamp;P1;durP1;ratioP1;P2;durP2;ratioP2
32094;SDS011;18608;53.688;10.748;2023-03-12T00:02:00;11.00;;;5.30;;
32094;SDS011;18608;53.688;10.748;2023-03-12T00:04:26;8.00;;;5.50;;
32094;SDS011;18608;53.688;10.748;2023-03-12T00:06:52;8.20;;;4.90;;
32094;SDS011;18608;53.688;10.748;2023-03-12T00:09:18;12.80;;;5.00;;
32094;SDS011;18608;53.688;10.748;2023-03-12T00:11:43;5.63;;;4.33;;
32094;SDS011;18608;53.688;10.748;2023-03-12T00:14:09;4.83;;;4.33;;
32094;SDS011;18608;53.688;10.748;2023-03-12T00:16:35;7.57;;;5.20;;
32094;SDS011;18608;53.688;10.748;2023-03-12T00:19:00;5.87;;;5.27;;
32094;SDS011;18608;53.688;10.748;2023-03-12T00:21:26;9.83;;;5.00;;
32094;SDS011;18608;53.688;10.748;2023-03-12T00:23:52;8.30;;;4.10;;
32094;SDS011;18608;53.688;10.748;2023-03-12T00:26:18;6.23;;;4.60;;
32094;SDS011;18608;53.688;10.748;2023-03-12T00:28:46;5.73;;;5.13;;
32094;SDS011;18608;53.688;10.748;2023-03-12T00:31:17;8.63;;;5.10;;
32094;SDS011;18608;53.688;10.748;2023-03-12T00:33:47;9.27;;;5.97;;
32094;SDS011;18608;53.688;10.748;2023-03-12T00:36:16;7.50;;;5.53;;
32094;SDS011;18608;53.688;10.748;2023-03-12T00:38:44;9.60;;;4.90;;
32094;SDS011;18608;53.688;10.748;2023-03-12T00:41:09;8.13;;;6.00;;
32094;SDS011;18608;53.688;10.748;2023-03-12T00:43:35;8.50;;;5.80;;
32094;SDS011;18608;53.688;10.748;2023-03-12T00:46:01;7.07;;;5.40;;
32094;SDS011;18608;53.688;10.748;2023-03-12T00:48:26;8.67;;;6.23;;
32094;SDS011;18608;53.688;10.748;2023-03-12T00:50:52;7.90;;;6.23;;
32094;SDS011;18608;53.688;10.748;2023-03-12T00:53:18;5.27;;;4.30;;
32094;SDS011;18608;53.688;10.748;2023-03-12T00:55:43;13.90;;;6.30;;
32094;SDS011;18608;53.688;10.748;2023-03-12T00:58:09;8.67;;;5.03;;
32094;SDS011;18608;53.688;10.748;2023-03-12T01:00:35;8.30;;;4.70;;
32094;SDS011;18608;53.688;10.748;2023-03-12T01:03:00;13.70;;;6.63;;
32094;SDS011;18608;53.688;10.748;2023-03-12T01:05:26;7.50;;;4.30;;
32094;SDS011;18608;53.688;10.748;2023-03-12T01:07:51;7.80;;;5.40;;
32094;SDS011;18608;53.688;10.748;2023-03-12T01:10:18;10.63;;;6.40;;
32094;SDS011;18608;53.688;10.748;2023-03-12T01:12:44;11.70;;;5.33;;
32094;SDS011;18608;53.688;10.748;2023-03-12T01:15:12;12.77;;;6.70;;
32094;SDS011;18608;53.688;10.748;2023-03-12T01:17:40;8.87;;;5.80;;
32094;SDS011;18608;53.688;10.748;2023-03-12T01:20:06;7.80;;;5.57;;
32094;SDS011;18608;53.688;10.748;2023-03-12T01:22:32;11.30;;;5.70;;
32094;SDS011;18608;53.688;10.748;2023-03-12T01:24:58;9.60;;;6.37;;
32094;SDS011;18608;53.688;10.748;2023-03-12T01:27:24;9.20;;;5.63;;
32094;SDS011;18608;53.688;10.748;2023-03-12T01:29:50;8.80;;;5.30;;
32094;SDS011;18608;53.688;10.748;2023-03-12T01:32:16;9.63;;;5.60;;
32094;SDS011;18608;53.688;10.748;2023-03-12T01:34:42;6.73;;;5.77;;
32094;SDS011;18608;53.688;10.748;2023-03-12T01:37:08;7.33;;;5.47;;
32094;SDS011;18608;53.688;10.748;2023-03-12T01:39:33;12.00;;;6.00;;
32094;SDS011;18608;53.688;10.748;2023-03-12T01:41:59;7.53;;;6.23;;
32094;SDS011;18608;53.688;10.748;2023-03-12T01:44:26;7.93;;;5.53;;
32094;SDS011;18608;53.688;10.748;2023-03-12T01:46:51;12.30;;;7.80;;
32094;SDS011;18608;53.688;10.748;2023-03-12T01:52:00;11.93;;;6.50;;
32094;SDS011;18608;53.688;10.748;2023-03-12T01:54:35;4.93;;;4.53;;
32094;SDS011;18608;53.688;10.748;2023-03-12T01:57:17;8.53;;;5.83;;
32094;SDS011;18608;53.688;10.748;2023-03-12T01:59:49;8.20;;;5.53;;
32094;SDS011;18608;53.688;10.748;2023-03-12T02:02:18;11.40;;;7.07;;
32094;SDS011;18608;53.688;10.748;2023-03-12T02:04:48;7.53;;;5.57;;
32094;SDS011;18608;53.688;10.748;2023-03-12T02:07:17;8.87;;;6.00;;
32094;SDS011;18608;53.688;10.748;2023-03-12T02:09:47;9.87;;;7.40;;
32094;SDS011;18608;53.688;10.748;2023-03-12T02:12:14;7.97;;;5.77;;
32094;SDS011;18608;53.688;10.748;2023-03-12T02:14:41;9.57;;;6.23;;
32094;SDS011;18608;53.688;10.748;2023-03-12T02:17:07;12.57;;;7.67;;
32094;SDS011;18608;53.688;10.748;2023-03-12T02:19:40;15.07;;;6.80;;
32094;SDS011;18608;53.688;10.748;2023-03-12T02:22:27;8.37;;;6.53;;
32094;SDS011;18608;53.688;10.748;2023-03-12T02:25:40;10.27;;;6.90;;
32094;SDS011;18608;53.688;10.748;2023-03-12T02:27:58;10.73;;;6.67;;
32094;SDS011;18608;53.688;10.748;2023-03-12T02:30:26;12.23;;;7.53;;
32094;SDS011;18608;53.688;10.748;2023-03-12T02:32:54;8.43;;;5.90;;
32094;SDS011;18608;53.688;10.748;2023-03-12T02:35:20;15.50;;;7.23;;
32094;SDS011;18608;53.688;10.748;2023-03-12T02:37:47;9.93;;;6.00;;
32094;SDS011;18608;53.688;10.748;2023-03-12T02:40:20;11.93;;;7.40;;
32094;SDS011;18608;53.688;10.748;2023-03-12T02:42:57;11.50;;;7.30;;
32094;SDS011;18608;53.688;10.748;2023-03-12T02:45:24;17.27;;;6.77;;
32094;SDS011;18608;53.688;10.748;2023-03-12T02:47:50;10.77;;;6.50;;
32094;SDS011;18608;53.688;10.748;2023-03-12T02:50:16;13.43;;;6.73;;
32094;SDS011;18608;53.688;10.748;2023-03-12T02:52:42;9.43;;;6.90;;
32094;SDS011;18608;53.688;10.748;2023-03-12T02:55:08;8.33;;;5.93;;
32094;SDS011;18608;53.688;10.748;2023-03-12T02:57:34;9.70;;;7.17;;
32094;SDS011;18608;53.688;10.748;2023-03-12T03:00:04;15.87;;;7.50;;
32094;SDS011;18608;53.688;10.748;2023-03-12T03:02:36;13.43;;;7.60;;
32094;SDS011;18608;53.688;10.748;2023-03-12T03:05:02;6.93;;;5.50;;
32094;SDS011;18608;53.688;10.748;2023-03-12T03:07:27;8.97;;;6.50;;
32094;SDS011;18608;53.688;10.748;2023-03-12T03:09:53;13.17;;;7.07;;
32094;SDS011;18608;53.688;10.748;2023-03-12T03:12:19;10.57;;;7.10;;
32094;SDS011;18608;53.688;10.748;2023-03-12T03:14:44;12.60;;;7.30;;
32094;SDS011;18608;53.688;10.748;2023-03-12T03:17:10;9.30;;;7.40;;
32094;SDS011;18608;53.688;10.748;2023-03-12T03:19:36;13.90;;;6.87;;
32094;SDS011;18608;53.688;10.748;2023-03-12T03:22:01;9.43;;;6.83;;
32094;SDS011;18608;53.688;10.748;2023-03-12T03:24:27;10.40;;;6.90;;
32094;SDS011;18608;53.688;10.748;2023-03-12T03:26:52;10.43;;;6.93;;
32094;SDS011;18608;53.688;10.748;2023-03-12T03:29:18;9.93;;;7.20;;
32094;SDS011;18608;53.688;10.748;2023-03-12T03:31:44;13.70;;;7.70;;
32094;SDS011;18608;53.688;10.748;2023-03-12T03:34:09;10.47;;;7.00;;
32094;SDS011;18608;53.688;10.748;2023-03-12T03:36:36;9.50;;;6.77;;
32094;SDS011;18608;53.688;10.748;2023-03-12T03:39:02;15.70;;;8.20;;
32094;SDS011;18608;53.688;10.748;2023-03-12T03:41:29;13.70;;;8.10;;
32094;SDS011;18608;53.688;10.748;2023-03-12T03:43:56;18.37;;;7.50;;
32094;SDS011;18608;53.688;10.748;2023-03-12T03:46:22;11.60;;;7.70;;
32094;SDS011;18608;53.688;10.748;2023-03-12T03:48:49;12.20;;;6.80;;
32094;SDS011;18608;53.688;10.748;2023-03-12T03:51:15;14.50;;;7.50;;
32094;SDS011;18608;53.688;10.748;2023-03-12T03:53:41;12.60;;;7.20;;
32094;SDS011;18608;53.688;10.748;2023-03-12T03:56:07;10.43;;;7.47;;
32094;SDS011;18608;53.688;10.748;2023-03-12T03:58:34;12.93;;;6.70;;
32094;SDS011;18608;53.688;10.748;2023-03-12T04:01:00;15.20;;;7.80;;
32094;SDS011;18608;53.688;10.748;2023-03-12T04:03:26;13.90;;;7.57;;
32094;SDS011;18608;53.688;10.748;2023-03-12T04:05:55;16.80;;;8.70;;
32094;SDS011;18608;53.688;10.748;2023-03-12T04:08:23;13.30;;;7.47;;
32094;SDS011;18608;53.688;10.748;2023-03-12T04:10:48;13.13;;;7.20;;
32094;SDS011;18608;53.688;10.748;2023-03-12T04:13:14;19.53;;;8.23;;
32094;SDS011;18608;53.688;10.748;2023-03-12T04:15:47;14.23;;;8.33;;
32094;SDS011;18608;53.688;10.748;2023-03-12T04:18:13;14.17;;;9.47;;
32094;SDS011;18608;53.688;10.748;2023-03-12T04:20:39;14.00;;;8.83;;
32094;SDS011;18608;53.688;10.748;2023-03-12T04:23:05;18.07;;;10.77;;
32094;SDS011;18608;53.688;10.748;2023-03-12T04:25:31;16.07;;;10.20;;
32094;SDS011;18608;53.688;10.748;2023-03-12T04:27:56;20.23;;;9.87;;
32094;SDS011;18608;53.688;10.748;2023-03-12T04:30:22;23.83;;;11.77;;
32094;SDS011;18608;53.688;10.748;2023-03-12T04:32:47;19.10;;;9.27;;
32094;SDS011;18608;53.688;10.748;2023-03-12T04:35:13;20.67;;;10.67;;
32094;SDS011;18608;53.688;10.748;2023-03-12T04:37:39;18.27;;;9.80;;
32094;SDS011;18608;53.688;10.748;2023-03-12T04:40:05;18.97;;;10.63;;
32094;SDS011;18608;53.688;10.748;2023-03-12T04:42:34;19.20;;;10.83;;
32094;SDS011;18608;53.688;10.748;2023-03-12T04:45:01;24.73;;;10.27;;
32094;SDS011;18608;53.688;10.748;2023-03-12T04:47:30;22.53;;;10.37;;
32094;SDS011;18608;53.688;10.748;2023-03-12T04:49:56;19.10;;;10.67;;
32094;SDS011;18608;53.688;10.748;2023-03-12T04:52:22;21.97;;;10.83;;
32094;SDS011;18608;53.688;10.748;2023-03-12T04:54:48;24.10;;;12.73;;
32094;SDS011;18608;53.688;10.748;2023-03-12T04:57:13;19.93;;;11.67;;
32094;SDS011;18608;53.688;10.748;2023-03-12T04:59:39;21.87;;;10.53;;
32094;SDS011;18608;53.688;10.748;2023-03-12T05:02:04;22.57;;;11.80;;
32094;SDS011;18608;53.688;10.748;2023-03-12T05:04:30;25.97;;;12.67;;
32094;SDS011;18608;53.688;10.748;2023-03-12T05:06:56;20.33;;;11.00;;
32094;SDS011;18608;53.688;10.748;2023-03-12T05:09:21;25.63;;;12.30;;
32094;SDS011;18608;53.688;10.748;2023-03-12T05:11:47;29.67;;;11.13;;
32094;SDS011;18608;53.688;10.748;2023-03-12T05:14:13;21.60;;;10.50;;
32094;SDS011;18608;53.688;10.748;2023-03-12T05:16:38;23.73;;;12.57;;
32094;SDS011;18608;53.688;10.748;2023-03-12T05:19:04;24.83;;;12.20;;
32094;SDS011;18608;53.688;10.748;2023-03-12T05:21:30;22.23;;;10.60;;
32094;SDS011;18608;53.688;10.748;2023-03-12T05:23:55;25.77;;;12.10;;
32094;SDS011;18608;53.688;10.748;2023-03-12T05:26:24;27.00;;;13.23;;
32094;SDS011;18608;53.688;10.748;2023-03-12T05:28:52;21.27;;;12.67;;
32094;SDS011;18608;53.688;10.748;2023-03-12T05:31:18;28.63;;;13.50;;
32094;SDS011;18608;53.688;10.748;2023-03-12T05:33:44;27.73;;;12.73;;
32094;SDS011;18608;53.688;10.748;2023-03-12T05:36:11;30.10;;;13.90;;
32094;SDS011;18608;53.688;10.748;2023-03-12T05:38:37;30.20;;;14.73;;
32094;SDS011;18608;53.688;10.748;2023-03-12T05:41:03;21.57;;;12.33;;
32094;SDS011;18608;53.688;10.748;2023-03-12T05:43:29;27.87;;;12.90;;
32094;SDS011;18608;53.688;10.748;2023-03-12T05:45:58;30.13;;;13.67;;
32094;SDS011;18608;53.688;10.748;2023-03-12T05:48:25;29.90;;;13.93;;
32094;SDS011;18608;53.688;10.748;2023-03-12T05:50:51;28.53;;;14.43;;
32094;SDS011;18608;53.688;10.748;2023-03-12T05:53:17;25.13;;;12.40;;
32094;SDS011;18608;53.688;10.748;2023-03-12T05:55:42;38.73;;;14.07;;
32094;SDS011;18608;53.688;10.748;2023-03-12T05:58:08;29.37;;;14.27;;
32094;SDS011;18608;53.688;10.748;2023-03-12T06:00:34;38.70;;;14.73;;
32094;SDS011;18608;53.688;10.748;2023-03-12T06:03:05;30.50;;;15.07;;
32094;SDS011;18608;53.688;10.748;2023-03-12T06:05:31;37.43;;;15.73;;
32094;SDS011;18608;53.688;10.748;2023-03-12T06:07:58;35.13;;;14.23;;
32094;SDS011;18608;53.688;10.748;2023-03-12T06:10:24;37.60;;;16.00;;
32094;SDS011;18608;53.688;10.748;2023-03-12T06:12:49;36.17;;;16.77;;
32094;SDS011;18608;53.688;10.748;2023-03-12T06:15:15;29.70;;;15.27;;
32094;SDS011;18608;53.688;10.748;2023-03-12T06:17:41;33.27;;;14.53;;
32094;SDS011;18608;53.688;10.748;2023-03-12T06:20:07;34.07;;;15.60;;
32094;SDS011;18608;53.688;10.748;2023-03-12T06:22:33;37.97;;;14.80;;
32094;SDS011;18608;53.688;10.748;2023-03-12T06:24:59;29.87;;;13.73;;
32094;SDS011;18608;53.688;10.748;2023-03-12T06:27:24;39.73;;;17.87;;
32094;SDS011;18608;53.688;10.748;2023-03-12T06:29:50;40.20;;;18.60;;
32094;SDS011;18608;53.688;10.748;2023-03-12T06:32:16;38.27;;;18.10;;
32094;SDS011;18608;53.688;10.748;2023-03-12T06:34:42;41.83;;;18.70;;
32094;SDS011;18608;53.688;10.748;2023-03-12T06:37:08;49.03;;;18.93;;
32094;SDS011;18608;53.688;10.748;2023-03-12T06:39:34;44.77;;;19.00;;
32094;SDS011;18608;53.688;10.748;2023-03-12T06:41:59;47.83;;;18.83;;
32094;SDS011;18608;53.688;10.748;2023-03-12T06:44:25;47.27;;;18.80;;
32094;SDS011;18608;53.688;10.748;2023-03-12T06:46:51;40.83;;;19.40;;
32094;SDS011;18608;53.688;10.748;2023-03-12T06:49:17;38.30;;;17.23;;
32094;SDS011;18608;53.688;10.748;2023-03-12T06:51:43;36.80;;;20.37;;
32094;SDS011;18608;53.688;10.748;2023-03-12T06:54:09;32.17;;;17.10;;
32094;SDS011;18608;53.688;10.748;2023-03-12T06:56:34;42.27;;;17.87;;
32094;SDS011;18608;53.688;10.748;2023-03-12T06:59:00;35.73;;;16.07;;
32094;SDS011;18608;53.688;10.748;2023-03-12T07:01:26;39.70;;;17.77;;
32094;SDS011;18608;53.688;10.748;2023-03-12T07:03:51;46.87;;;18.40;;
32094;SDS011;18608;53.688;10.748;2023-03-12T07:06:19;34.37;;;15.90;;
32094;SDS011;18608;53.688;10.748;2023-03-12T07:08:46;39.10;;;18.97;;
32094;SDS011;18608;53.688;10.748;2023-03-12T07:11:13;47.53;;;19.00;;
32094;SDS011;18608;53.688;10.748;2023-03-12T07:13:39;33.40;;;16.63;;
32094;SDS011;18608;53.688;10.748;2023-03-12T07:16:05;35.80;;;16.93;;
32094;SDS011;18608;53.688;10.748;2023-03-12T07:18:32;38.70;;;18.40;;
32094;SDS011;18608;53.688;10.748;2023-03-12T07:20:58;39.33;;;19.30;;
32094;SDS011;18608;53.688;10.748;2023-03-12T07:23:24;33.40;;;16.30;;
32094;SDS011;18608;53.688;10.748;2023-03-12T07:25:50;41.37;;;17.33;;
32094;SDS011;18608;53.688;10.748;2023-03-12T07:28:16;35.77;;;16.80;;
32094;SDS011;18608;53.688;10.748;2023-03-12T07:30:43;45.23;;;19.17;;
32094;SDS011;18608;53.688;10.748;2023-03-12T07:33:14;33.57;;;17.87;;
32094;SDS011;18608;53.688;10.748;2023-03-12T07:35:41;32.00;;;15.87;;
32094;SDS011;18608;53.688;10.748;2023-03-12T07:38:07;34.33;;;17.53;;
32094;SDS011;18608;53.688;10.748;2023-03-12T07:40:33;34.10;;;16.80;;
32094;SDS011;18608;53.688;10.748;2023-03-12T07:42:59;33.53;;;17.07;;
32094;SDS011;18608;53.688;10.748;2023-03-12T07:45:25;34.47;;;16.20;;
32094;SDS011;18608;53.688;10.748;2023-03-12T07:47:51;31.30;;;17.73;;
32094;SDS011;18608;53.688;10.748;2023-03-12T07:50:17;32.67;;;15.27;;
32094;SDS011;18608;53.688;10.748;2023-03-12T07:52:43;29.63;;;16.00;;
32094;SDS011;18608;53.688;10.748;2023-03-12T07:55:09;28.23;;;14.87;;
32094;SDS011;18608;53.688;10.748;2023-03-12T07:57:35;27.10;;;15.30;;
32094;SDS011;18608;53.688;10.748;2023-03-12T08:00:01;29.03;;;14.63;;
32094;SDS011;18608;53.688;10.748;2023-03-12T08:02:31;25.47;;;13.57;;
32094;SDS011;18608;53.688;10.748;2023-03-12T08:04:57;28.30;;;14.07;;
32094;SDS011;18608;53.688;10.748;2023-03-12T08:07:23;32.00;;;14.80;;
32094;SDS011;18608;53.688;10.748;2023-03-12T08:09:48;26.60;;;14.30;;
32094;SDS011;18608;53.688;10.748;2023-03-12T08:12:14;27.90;;;12.03;;
32094;SDS011;18608;53.688;10.748;2023-03-12T08:14:39;27.63;;;13.53;;
32094;SDS011;18608;53.688;10.748;2023-03-12T08:17:06;19.97;;;11.10;;
32094;SDS011;18608;53.688;10.748;2023-03-12T08:19:31;20.33;;;11.40;;
32094;SDS011;18608;53.688;10.748;2023-03-12T08:21:57;27.13;;;11.47;;
32094;SDS011;18608;53.688;10.748;2023-03-12T08:24:23;22.30;;;13.10;;
32094;SDS011;18608;53.688;10.748;2023-03-12T08:26:48;21.07;;;11.60;;
32094;SDS011;18608;53.688;10.748;2023-03-12T08:29:14;21.13;;;10.57;;
32094;SDS011;18608;53.688;10.748;2023-03-12T08:31:41;22.83;;;12.60;;
32094;SDS011;18608;53.688;10.748;2023-03-12T08:34:06;20.73;;;9.70;;
32094;SDS011;18608;53.688;10.748;2023-03-12T08:36:32;16.03;;;10.13;;
32094;SDS011;18608;53.688;10.748;2023-03-12T08:38:58;22.57;;;8.60;;
32094;SDS011;18608;53.688;10.748;2023-03-12T08:41:23;10.03;;;6.87;;
32094;SDS011;18608;53.688;10.748;2023-03-12T08:43:49;11.63;;;8.07;;
32094;SDS011;18608;53.688;10.748;2023-03-12T08:46:14;11.80;;;8.37;;
32094;SDS011;18608;53.688;10.748;2023-03-12T08:48:40;12.43;;;7.73;;
32094;SDS011;18608;53.688;10.748;2023-03-12T08:51:06;14.37;;;8.20;;
32094;SDS011;18608;53.688;10.748;2023-03-12T08:53:32;10.80;;;6.77;;
32094;SDS011;18608;53.688;10.748;2023-03-12T08:55:59;9.63;;;6.93;;
32094;SDS011;18608;53.688;10.748;2023-03-12T08:58:25;16.13;;;7.20;;
32094;SDS011;18608;53.688;10.748;2023-03-12T09:00:51;10.17;;;6.77;;
32094;SDS011;18608;53.688;10.748;2023-03-12T09:03:18;8.27;;;7.00;;
32094;SDS011;18608;53.688;10.748;2023-03-12T09:05:45;9.23;;;5.60;;
32094;SDS011;18608;53.688;10.748;2023-03-12T09:08:12;6.70;;;6.03;;
32094;SDS011;18608;53.688;10.748;2023-03-12T09:10:38;7.00;;;4.53;;
32094;SDS011;18608;53.688;10.748;2023-03-12T09:13:05;4.90;;;4.50;;
32094;SDS011;18608;53.688;10.748;2023-03-12T09:15:31;6.70;;;4.57;;
32094;SDS011;18608;53.688;10.748;2023-03-12T09:17:57;16.07;;;5.30;;
32094;SDS011;18608;53.688;10.748;2023-03-12T09:20:23;6.80;;;4.53;;
32094;SDS011;18608;53.688;10.748;2023-03-12T09:22:50;9.80;;;4.83;;
32094;SDS011;18608;53.688;10.748;2023-03-12T09:25:16;5.57;;;4.97;;
32094;SDS011;18608;53.688;10.748;2023-03-12T09:27:45;7.13;;;5.10;;
32094;SDS011;18608;53.688;10.748;2023-03-12T09:30:13;7.37;;;5.20;;
32094;SDS011;18608;53.688;10.748;2023-03-12T09:32:41;8.33;;;4.73;;
32094;SDS011;18608;53.688;10.748;2023-03-12T09:35:09;5.60;;;5.10;;
32094;SDS011;18608;53.688;10.748;2023-03-12T09:37:35;11.73;;;4.80;;
32094;SDS011;18608;53.688;10.748;2023-03-12T09:40:01;7.73;;;5.03;;
32094;SDS011;18608;53.688;10.748;2023-03-12T09:42:34;11.20;;;4.83;;
32094;SDS011;18608;53.688;10.748;2023-03-12T09:45:07;8.73;;;4.90;;
32094;SDS011;18608;53.688;10.748;2023-03-12T09:47:50;6.60;;;5.27;;
32094;SDS011;18608;53.688;10.748;2023-03-12T09:50:18;7.43;;;4.47;;
32094;SDS011;18608;53.688;10.748;2023-03-12T09:55:38;11.00;;;4.83;;
32094;SDS011;18608;53.688;10.748;2023-03-12T09:58:17;10.37;;;4.00;;
32094;SDS011;18608;53.688;10.748;2023-03-12T10:01:01;9.10;;;4.37;;
32094;SDS011;18608;53.688;10.748;2023-03-12T10:15:02;6.37;;;3.80;;
32094;SDS011;18608;53.688;10.748;2023-03-12T10:17:55;4.70;;;3.30;;
32094;SDS011;18608;53.688;10.748;2023-03-12T10:20:52;9.53;;;2.70;;
32094;SDS011;18608;53.688;10.748;2023-03-12T10:26:42;6.00;;;2.40;;
32094;SDS011;18608;53.688;10.748;2023-03-12T10:34:18;3.77;;;2.37;;
32094;SDS011;18608;53.688;10.748;2023-03-12T10:36:49;4.53;;;2.60;;
32094;SDS011;18608;53.688;10.748;2023-03-12T10:39:16;9.50;;;3.30;;
32094;SDS011;18608;53.688;10.748;2023-03-12T10:41:44;4.77;;;2.83;;
32094;SDS011;18608;53.688;10.748;2023-03-12T10:44:21;2.80;;;2.57;;
32094;SDS011;18608;53.688;10.748;2023-03-12T10:49:28;10.10;;;2.50;;
32094;SDS011;18608;53.688;10.748;2023-03-12T10:52:00;3.57;;;2.70;;
32094;SDS011;18608;53.688;10.748;2023-03-12T10:56:55;3.73;;;2.00;;
32094;SDS011;18608;53.688;10.748;2023-03-12T10:59:21;3.93;;;2.67;;
32094;SDS011;18608;53.688;10.748;2023-03-12T11:01:50;4.13;;;2.30;;
32094;SDS011;18608;53.688;10.748;2023-03-12T11:04:20;2.93;;;2.63;;
32094;SDS011;18608;53.688;10.748;2023-03-12T11:12:31;3.40;;;3.10;;
32094;SDS011;18608;53.688;10.748;2023-03-12T11:14:59;4.90;;;2.60;;
32094;SDS011;18608;53.688;10.748;2023-03-12T11:18:17;6.67;;;3.50;;
32094;SDS011;18608;53.688;10.748;2023-03-12T11:20:50;5.00;;;3.40;;
32094;SDS011;18608;53.688;10.748;2023-03-12T11:23:28;3.53;;;3.23;;
32094;SDS011;18608;53.688;10.748;2023-03-12T11:25:56;5.50;;;3.10;;
32094;SDS011;18608;53.688;10.748;2023-03-12T11:28:41;6.00;;;3.67;;
32094;SDS011;18608;53.688;10.748;2023-03-12T11:31:31;8.63;;;3.67;;
32094;SDS011;18608;53.688;10.748;2023-03-12T11:34:02;6.03;;;3.90;;
32094;SDS011;18608;53.688;10.748;2023-03-12T11:36:34;5.70;;;4.50;;
32094;SDS011;18608;53.688;10.748;2023-03-12T11:48:11;8.73;;;5.43;;
32094;SDS011;18608;53.688;10.748;2023-03-12T12:01:39;4.37;;;3.67;;
32094;SDS011;18608;53.688;10.748;2023-03-12T12:13:09;5.27;;;4.77;;
32094;SDS011;18608;53.688;10.748;2023-03-12T12:20:53;6.00;;;4.00;;
32094;SDS011;18608;53.688;10.748;2023-03-12T12:26:21;5.73;;;4.30;;
32094;SDS011;18608;53.688;10.748;2023-03-12T12:36:45;3.60;;;3.30;;
32094;SDS011;18608;53.688;10.748;2023-03-12T12:41:42;3.63;;;3.33;;
32094;SDS011;18608;53.688;10.748;2023-03-12T12:44:26;3.57;;;2.90;;
32094;SDS011;18608;53.688;10.748;2023-03-12T12:46:59;3.97;;;3.10;;
32094;SDS011;18608;53.688;10.748;2023-03-12T12:52:18;3.40;;;3.00;;
32094;SDS011;18608;53.688;10.748;2023-03-12T12:57:59;3.17;;;2.90;;
32094;SDS011;18608;53.688;10.748;2023-03-12T13:00:38;6.80;;;2.90;;
32094;SDS011;18608;53.688;10.748;2023-03-12T13:03:17;4.10;;;3.63;;
32094;SDS011;18608;53.688;10.748;2023-03-12T13:05:53;4.30;;;3.00;;
32094;SDS011;18608;53.688;10.748;2023-03-12T13:11:24;3.80;;;2.33;;
32094;SDS011;18608;53.688;10.748;2023-03-12T13:16:35;7.90;;;2.40;;
32094;SDS011;18608;53.688;10.748;2023-03-12T13:21:39;3.30;;;1.90;;
32094;SDS011;18608;53.688;10.748;2023-03-12T13:24:17;4.93;;;2.27;;
32094;SDS011;18608;53.688;10.748;2023-03-12T13:26:50;9.80;;;2.43;;
32094;SDS011;18608;53.688;10.748;2023-03-12T13:29:36;2.63;;;2.30;;
32094;SDS011;18608;53.688;10.748;2023-03-12T13:32:06;3.40;;;2.10;;
32094;SDS011;18608;53.688;10.748;2023-03-12T13:34:41;4.20;;;2.30;;
32094;SDS011;18608;53.688;10.748;2023-03-12T13:37:18;9.57;;;2.20;;
32094;SDS011;18608;53.688;10.748;2023-03-12T13:39:52;3.53;;;2.07;;
32094;SDS011;18608;53.688;10.748;2023-03-12T13:44:51;2.10;;;1.77;;
32094;SDS011;18608;53.688;10.748;2023-03-12T13:50:05;3.13;;;2.37;;
32094;SDS011;18608;53.688;10.748;2023-03-12T13:52:45;7.40;;;2.90;;
32094;SDS011;18608;53.688;10.748;2023-03-12T13:55:23;2.63;;;2.40;;
32094;SDS011;18608;53.688;10.748;2023-03-12T13:57:55;3.47;;;3.00;;
32094;SDS011;18608;53.688;10.748;2023-03-12T14:00:55;2.90;;;2.60;;
32094;SDS011;18608;53.688;10.748;2023-03-12T14:03:32;2.80;;;2.60;;
32094;SDS011;18608;53.688;10.748;2023-03-12T14:16:50;3.83;;;3.13;;
32094;SDS011;18608;53.688;10.748;2023-03-12T14:19:21;6.10;;;3.37;;
32094;SDS011;18608;53.688;10.748;2023-03-12T14:21:49;4.33;;;3.93;;
32094;SDS011;18608;53.688;10.748;2023-03-12T14:24:27;5.97;;;3.77;;
32094;SDS011;18608;53.688;10.748;2023-03-12T14:26:58;7.23;;;3.73;;
32094;SDS011;18608;53.688;10.748;2023-03-12T14:32:05;4.37;;;3.90;;
32094;SDS011;18608;53.688;10.748;2023-03-12T14:34:42;5.73;;;2.73;;
32094;SDS011;18608;53.688;10.748;2023-03-12T14:37:15;7.30;;;3.57;;
32094;SDS011;18608;53.688;10.748;2023-03-12T14:39:51;3.33;;;3.03;;
32094;SDS011;18608;53.688;10.748;2023-03-12T14:42:22;3.20;;;2.90;;
32094;SDS011;18608;53.688;10.748;2023-03-12T14:44:53;3.60;;;2.97;;
32094;SDS011;18608;53.688;10.748;2023-03-12T14:47:38;7.90;;;3.00;;
32094;SDS011;18608;53.688;10.748;2023-03-12T14:50:05;5.10;;;2.60;;
32094;SDS011;18608;53.688;10.748;2023-03-12T14:52:31;3.00;;;2.73;;
32094;SDS011;18608;53.688;10.748;2023-03-12T14:55:02;3.70;;;2.80;;
32094;SDS011;18608;53.688;10.748;2023-03-12T14:57:32;3.33;;;2.87;;
32094;SDS011;18608;53.688;10.748;2023-03-12T14:59:59;5.97;;;4.47;;
32094;SDS011;18608;53.688;10.748;2023-03-12T15:02:26;3.10;;;2.70;;
32094;SDS011;18608;53.688;10.748;2023-03-12T15:04:55;5.57;;;3.30;;
32094;SDS011;18608;53.688;10.748;2023-03-12T15:07:26;4.30;;;2.67;;
32094;SDS011;18608;53.688;10.748;2023-03-12T15:10:02;3.60;;;3.20;;
32094;SDS011;18608;53.688;10.748;2023-03-12T15:12:33;3.60;;;3.00;;
32094;SDS011;18608;53.688;10.748;2023-03-12T15:15:08;5.23;;;3.90;;
32094;SDS011;18608;53.688;10.748;2023-03-12T15:17:47;3.90;;;3.60;;
32094;SDS011;18608;53.688;10.748;2023-03-12T15:20:14;8.63;;;4.03;;
32094;SDS011;18608;53.688;10.748;2023-03-12T15:22:40;3.97;;;3.57;;
32094;SDS011;18608;53.688;10.748;2023-03-12T15:25:25;4.87;;;4.03;;
32094;SDS011;18608;53.688;10.748;2023-03-12T15:33:30;5.70;;;3.57;;
32094;SDS011;18608;53.688;10.748;2023-03-12T15:38:36;6.73;;;4.10;;
32094;SDS011;18608;53.688;10.748;2023-03-12T15:41:20;5.63;;;4.20;;
32094;SDS011;18608;53.688;10.748;2023-03-12T15:43:59;7.57;;;4.27;;
32094;SDS011;18608;53.688;10.748;2023-03-12T15:46:25;6.07;;;4.67;;
32094;SDS011;18608;53.688;10.748;2023-03-12T15:48:52;3.10;;;2.90;;
32094;SDS011;18608;53.688;10.748;2023-03-12T15:51:25;7.83;;;4.53;;
32094;SDS011;18608;53.688;10.748;2023-03-12T15:53:58;5.13;;;3.90;;
32094;SDS011;18608;53.688;10.748;2023-03-12T15:56:47;5.10;;;3.87;;
32094;SDS011;18608;53.688;10.748;2023-03-12T16:01:52;3.50;;;3.30;;
32094;SDS011;18608;53.688;10.748;2023-03-12T16:04:19;6.90;;;4.07;;
32094;SDS011;18608;53.688;10.748;2023-03-12T16:06:46;4.20;;;3.90;;
32094;SDS011;18608;53.688;10.748;2023-03-12T16:09:15;3.93;;;3.70;;
32094;SDS011;18608;53.688;10.748;2023-03-12T16:11:50;4.43;;;3.70;;
32094;SDS011;18608;53.688;10.748;2023-03-12T16:16:43;4.40;;;3.73;;
32094;SDS011;18608;53.688;10.748;2023-03-12T16:19:13;4.27;;;3.90;;
32094;SDS011;18608;53.688;10.748;2023-03-12T16:21:41;4.03;;;3.30;;
32094;SDS011;18608;53.688;10.748;2023-03-12T16:24:07;5.07;;;3.63;;
32094;SDS011;18608;53.688;10.748;2023-03-12T16:26:33;3.70;;;3.40;;
32094;SDS011;18608;53.688;10.748;2023-03-12T16:29:01;5.27;;;3.57;;
32094;SDS011;18608;53.688;10.748;2023-03-12T16:31:28;4.83;;;4.40;;
32094;SDS011;18608;53.688;10.748;2023-03-12T16:33:54;4.00;;;3.70;;
32094;SDS011;18608;53.688;10.748;2023-03-12T16:36:19;4.40;;;4.07;;
32094;SDS011;18608;53.688;10.748;2023-03-12T16:38:45;5.23;;;4.13;;
32094;SDS011;18608;53.688;10.748;2023-03-12T16:41:12;5.33;;;4.83;;
32094;SDS011;18608;53.688;10.748;2023-03-12T16:43:40;4.60;;;4.20;;